createdAt,value
2018-12-24T00:02:21.381Z,6.61
2018-12-24T00:04:49.802Z,6.61
2018-12-24T00:07:18.337Z,6.64
2018-12-24T00:09:46.709Z,6.65
2018-12-24T00:12:15.097Z,6.65
2018-12-24T00:14:43.512Z,6.60
2018-12-24T00:17:11.964Z,6.64
2018-12-24T00:19:40.361Z,6.62
2018-12-24T00:22:08.705Z,6.59
2018-12-24T00:24:37.083Z,6.59
2018-12-24T00:27:05.503Z,6.63
2018-12-24T00:29:33.848Z,6.57
2018-12-24T00:32:02.220Z,6.57
2018-12-24T00:34:30.564Z,6.57
2018-12-24T00:36:58.918Z,6.60
2018-12-24T00:39:27.341Z,6.59
2018-12-24T00:41:55.687Z,6.57
2018-12-24T00:44:24.182Z,6.53
2018-12-24T00:46:52.608Z,6.53
2018-12-24T00:49:21.008Z,6.55
2018-12-24T00:51:49.374Z,6.55
2018-12-24T00:54:17.719Z,6.57
2018-12-24T00:56:46.097Z,6.55
2018-12-24T00:59:14.494Z,6.55
2018-12-24T01:01:42.849Z,6.55
2018-12-24T01:04:11.300Z,6.56
2018-12-24T01:06:39.889Z,6.59
2018-12-24T01:09:08.236Z,6.57
2018-12-24T01:11:36.581Z,6.54
2018-12-24T01:14:05.042Z,6.51
2018-12-24T01:16:33.395Z,6.46
2018-12-24T01:19:01.746Z,6.45
2018-12-24T01:21:30.138Z,6.40
2018-12-24T01:23:58.494Z,6.37
2018-12-24T01:26:26.922Z,6.31
2018-12-24T01:28:55.294Z,6.31
2018-12-24T01:31:23.841Z,6.32
2018-12-24T01:33:52.206Z,6.30
2018-12-24T01:36:20.572Z,6.38
2018-12-24T01:38:48.989Z,6.39
2018-12-24T01:41:17.344Z,6.38
2018-12-24T01:43:45.776Z,6.42
2018-12-24T01:46:14.127Z,6.40
2018-12-24T01:48:42.623Z,6.38
2018-12-24T01:51:13.867Z,6.36
2018-12-24T01:53:42.256Z,6.36
2018-12-24T01:56:10.655Z,6.36
2018-12-24T01:58:39.010Z,6.36
2018-12-24T02:01:07.422Z,6.34
2018-12-24T02:03:35.839Z,6.34
2018-12-24T02:06:04.186Z,6.35
2018-12-24T02:08:32.537Z,6.41
2018-12-24T02:11:01.051Z,6.40
2018-12-24T02:13:29.396Z,6.42
2018-12-24T02:15:57.851Z,6.41
2018-12-24T02:18:26.428Z,6.42
2018-12-24T02:20:54.772Z,6.42
2018-12-24T02:23:23.133Z,6.41
2018-12-24T02:25:51.609Z,6.42
2018-12-24T02:28:19.954Z,6.38
2018-12-24T02:30:48.877Z,6.37
2018-12-24T02:33:17.233Z,6.40
2018-12-24T02:35:45.631Z,6.41
2018-12-24T02:38:14.015Z,6.42
2018-12-24T02:40:42.443Z,6.40
2018-12-24T02:43:10.814Z,6.39
2018-12-24T02:45:39.171Z,6.42
2018-12-24T02:48:08.377Z,6.43
2018-12-24T02:50:36.769Z,6.40
2018-12-24T02:53:05.279Z,6.38
2018-12-24T02:55:33.693Z,6.36
2018-12-24T02:58:02.078Z,6.38
2018-12-24T03:00:30.555Z,6.35
2018-12-24T03:02:58.918Z,6.39
2018-12-24T03:05:27.287Z,6.38
2018-12-24T03:07:55.744Z,6.37
2018-12-24T03:10:24.148Z,6.35
2018-12-24T03:13:02.290Z,6.35
2018-12-24T03:15:22.618Z,6.38
2018-12-24T03:17:51.033Z,6.39
2018-12-24T03:20:19.420Z,6.36
2018-12-24T03:22:47.794Z,6.31
2018-12-24T03:25:16.195Z,6.32
2018-12-24T03:27:44.606Z,6.33
2018-12-24T03:30:12.955Z,6.24
2018-12-24T03:32:41.364Z,6.16
2018-12-24T03:35:09.725Z,6.15
2018-12-24T03:37:38.061Z,6.03
2018-12-24T03:40:06.549Z,6.03
2018-12-24T03:42:34.906Z,5.95
2018-12-24T03:45:03.274Z,5.91
2018-12-24T03:47:31.661Z,5.88
2018-12-24T03:50:00.044Z,5.81
2018-12-24T03:52:28.609Z,5.81
2018-12-24T03:54:56.966Z,5.76
2018-12-24T03:57:25.321Z,5.69
2018-12-24T03:59:53.734Z,5.69
2018-12-24T04:02:22.131Z,5.65
2018-12-24T04:04:50.510Z,5.59
2018-12-24T04:07:18.921Z,5.59
2018-12-24T04:09:47.407Z,5.53
2018-12-24T04:12:15.767Z,5.55
2018-12-24T04:14:44.128Z,5.44
2018-12-24T04:17:12.553Z,5.38
2018-12-24T04:19:40.972Z,5.38
2018-12-24T04:22:09.312Z,5.31
2018-12-24T04:24:37.686Z,5.27
2018-12-24T04:27:06.071Z,5.26
2018-12-24T04:29:35.292Z,5.24
2018-12-24T04:32:03.796Z,5.20
2018-12-24T04:34:32.188Z,5.18
2018-12-24T04:37:00.539Z,5.08
2018-12-24T04:39:28.926Z,5.09
2018-12-24T04:41:57.279Z,5.00
2018-12-24T04:44:25.717Z,4.95
2018-12-24T04:46:54.125Z,4.92
2018-12-24T04:49:22.469Z,4.92
2018-12-24T04:51:50.886Z,4.94
2018-12-24T04:54:19.242Z,4.92
2018-12-24T04:56:47.620Z,4.90
2018-12-24T04:59:15.998Z,4.95
2018-12-24T05:01:44.355Z,4.95
2018-12-24T05:04:12.747Z,4.87
2018-12-24T05:06:41.103Z,4.82
2018-12-24T05:09:09.587Z,4.78
2018-12-24T05:11:37.949Z,4.78
2018-12-24T05:14:06.438Z,4.70
2018-12-24T05:16:34.931Z,4.70
2018-12-24T05:19:03.284Z,4.59
2018-12-24T05:21:31.652Z,4.59
2018-12-24T05:24:00.044Z,4.53
2018-12-24T05:26:28.391Z,4.44
2018-12-24T05:28:56.737Z,4.41
2018-12-24T05:31:25.214Z,4.43
2018-12-24T05:33:53.598Z,4.39
2018-12-24T05:36:22.038Z,4.33
2018-12-24T05:38:50.505Z,4.32
2018-12-24T05:41:18.980Z,4.24
2018-12-24T05:43:49.542Z,4.18
2018-12-24T05:46:17.625Z,4.17
2018-12-24T05:48:45.970Z,4.14
2018-12-24T05:51:14.360Z,4.12
2018-12-24T05:53:42.773Z,4.12
2018-12-24T05:56:11.155Z,4.09
2018-12-24T05:58:39.562Z,4.08
2018-12-24T06:01:08.035Z,4.05
2018-12-24T06:03:36.422Z,4.00
2018-12-24T06:06:04.849Z,3.96
2018-12-24T06:08:33.203Z,3.95
2018-12-24T06:11:01.559Z,3.92
2018-12-24T06:13:30.004Z,3.88
2018-12-24T06:15:58.346Z,3.86
2018-12-24T06:18:26.743Z,3.83
2018-12-24T06:20:55.227Z,3.81
2018-12-24T06:23:23.599Z,3.80
2018-12-24T06:25:52.381Z,3.79
2018-12-24T06:28:20.759Z,3.75
2018-12-24T06:30:49.121Z,3.71
2018-12-24T06:33:17.614Z,3.67
2018-12-24T06:35:45.995Z,3.64
2018-12-24T06:38:14.351Z,3.60
2018-12-24T06:40:42.772Z,3.57
2018-12-24T06:43:11.137Z,3.56
2018-12-24T06:45:39.498Z,3.52
2018-12-24T06:48:07.922Z,3.51
2018-12-24T06:50:36.272Z,3.50
2018-12-24T06:53:04.646Z,3.51
2018-12-24T06:55:33.149Z,3.49
2018-12-24T06:58:01.530Z,3.48
2018-12-24T07:00:29.885Z,3.43
2018-12-24T07:02:58.289Z,3.40
2018-12-24T07:05:26.655Z,3.38
2018-12-24T07:07:55.012Z,3.33
2018-12-24T07:10:23.495Z,3.31
2018-12-24T07:12:51.853Z,3.27
2018-12-24T07:15:20.231Z,3.24
2018-12-24T07:17:48.748Z,3.23
2018-12-24T07:20:17.088Z,3.19
2018-12-24T07:22:45.437Z,3.16
2018-12-24T07:25:13.819Z,3.12
2018-12-24T07:27:42.307Z,3.08
2018-12-24T07:30:10.667Z,3.04
2018-12-24T07:32:39.024Z,2.99
2018-12-24T07:35:07.506Z,2.95
2018-12-24T07:37:35.853Z,2.92
2018-12-24T07:40:04.202Z,2.88
2018-12-24T07:42:34.819Z,2.84
2018-12-24T07:45:03.213Z,2.81
2018-12-24T07:47:31.608Z,2.78
2018-12-24T07:50:00.015Z,2.76
2018-12-24T07:52:28.360Z,2.75
2018-12-24T07:54:56.852Z,2.73
2018-12-24T07:57:25.214Z,2.68
2018-12-24T07:59:53.607Z,2.62
2018-12-24T08:02:22.094Z,2.57
2018-12-24T08:04:50.531Z,2.55
2018-12-24T08:07:18.877Z,2.53
2018-12-24T08:09:47.281Z,2.52
2018-12-24T08:12:15.624Z,2.52
2018-12-24T08:14:44.142Z,2.51
2018-12-24T08:17:12.488Z,2.52
2018-12-24T08:19:40.874Z,2.53
2018-12-24T08:22:09.290Z,2.52
2018-12-24T08:24:37.761Z,2.53
2018-12-24T08:27:06.147Z,2.53
2018-12-24T08:29:34.637Z,2.51
2018-12-24T08:32:03.010Z,2.51
2018-12-24T08:34:31.406Z,2.51
2018-12-24T08:36:59.770Z,2.51
2018-12-24T08:39:28.149Z,2.50
2018-12-24T08:41:56.608Z,2.49
2018-12-24T08:44:25.003Z,2.50
2018-12-24T08:46:53.372Z,2.50
2018-12-24T08:49:21.752Z,2.51
2018-12-24T08:51:50.092Z,2.53
2018-12-24T08:54:18.511Z,2.57
2018-12-24T08:56:46.852Z,2.60
2018-12-24T08:59:15.206Z,2.61
2018-12-24T09:01:43.619Z,2.65
2018-12-24T09:04:12.047Z,2.67
2018-12-24T09:06:40.387Z,2.71
2018-12-24T09:09:08.793Z,2.70
2018-12-24T09:11:37.348Z,2.72
2018-12-24T09:14:05.703Z,2.74
2018-12-24T09:16:34.656Z,2.72
2018-12-24T09:19:03.011Z,2.74
2018-12-24T09:21:31.418Z,2.76
2018-12-24T09:23:59.772Z,2.77
2018-12-24T09:26:28.221Z,2.78
2018-12-24T09:28:56.751Z,2.82
2018-12-24T09:31:25.071Z,2.84
2018-12-24T09:33:53.468Z,2.87
2018-12-24T09:36:21.846Z,2.90
2018-12-24T09:38:50.228Z,2.95
2018-12-24T09:41:18.644Z,2.98
2018-12-24T09:43:47.042Z,3.00
2018-12-24T09:46:15.464Z,3.03
2018-12-24T09:48:43.874Z,3.08
2018-12-24T09:51:12.215Z,3.11
2018-12-24T09:53:40.630Z,3.16
2018-12-24T09:56:12.313Z,3.17
2018-12-24T09:58:39.205Z,3.23
2018-12-24T10:01:07.557Z,3.25
2018-12-24T10:03:35.993Z,3.26
2018-12-24T10:06:06.645Z,3.31
2018-12-24T10:08:35.059Z,3.37
2018-12-24T10:11:03.647Z,3.39
2018-12-24T10:13:32.042Z,3.42
2018-12-24T10:16:00.417Z,3.48
2018-12-24T10:18:28.786Z,3.50
2018-12-24T10:20:57.132Z,3.53
2018-12-24T10:23:25.507Z,3.59
2018-12-24T10:25:53.884Z,3.60
2018-12-24T10:28:22.265Z,3.60
2018-12-24T10:30:50.817Z,3.63
2018-12-24T10:33:19.168Z,3.68
2018-12-24T10:35:47.532Z,3.70
2018-12-24T10:38:15.944Z,3.76
2018-12-24T10:40:47.559Z,3.79
2018-12-24T10:43:16.041Z,3.82
2018-12-24T10:45:44.389Z,3.83
2018-12-24T10:48:12.788Z,3.86
2018-12-24T10:50:41.836Z,3.93
2018-12-24T10:53:10.192Z,3.98
2018-12-24T10:55:38.686Z,3.99
2018-12-24T10:58:07.037Z,4.04
2018-12-24T11:00:35.504Z,4.11
2018-12-24T11:03:03.881Z,4.16
2018-12-24T11:05:32.957Z,4.20
2018-12-24T11:08:01.345Z,4.23
2018-12-24T11:10:30.358Z,4.26
2018-12-24T11:12:58.856Z,4.30
2018-12-24T11:15:27.206Z,4.33
2018-12-24T11:17:55.609Z,4.37
2018-12-24T11:20:24.130Z,4.42
2018-12-24T11:22:52.569Z,4.44
2018-12-24T11:25:20.942Z,4.47
2018-12-24T11:27:49.428Z,4.49
2018-12-24T11:30:17.827Z,4.52
2018-12-24T11:32:46.222Z,4.54
2018-12-24T11:35:14.693Z,4.54
2018-12-24T11:37:43.081Z,4.62
2018-12-24T11:40:11.809Z,4.67
2018-12-24T11:42:40.229Z,4.72
2018-12-24T11:45:08.702Z,4.77
2018-12-24T11:47:37.145Z,4.77
2018-12-24T11:50:05.873Z,4.81
2018-12-24T11:52:34.376Z,4.82
2018-12-24T11:55:02.774Z,4.93
2018-12-24T11:57:31.128Z,4.93
2018-12-24T11:59:59.511Z,4.97
2018-12-24T12:02:27.993Z,4.97
2018-12-24T12:04:57.035Z,5.11
2018-12-24T12:07:25.389Z,5.20
2018-12-24T12:09:53.835Z,5.37
2018-12-24T12:12:22.218Z,5.45
2018-12-24T12:14:50.561Z,5.45
2018-12-24T12:17:18.989Z,5.49
2018-12-24T12:19:48.290Z,5.59
2018-12-24T12:22:16.688Z,5.66
2018-12-24T12:25:24.659Z,5.73
2018-12-24T12:27:52.931Z,5.72
2018-12-24T12:30:21.216Z,5.79
2018-12-24T12:32:49.477Z,5.88
2018-12-24T12:35:17.780Z,5.88
2018-12-24T12:37:46.310Z,5.93
2018-12-24T12:40:14.574Z,5.93
2018-12-24T12:42:42.891Z,5.99
2018-12-24T12:45:11.234Z,5.99
2018-12-24T12:47:39.499Z,6.04
2018-12-24T12:50:07.795Z,6.04
2018-12-24T12:52:36.713Z,6.07
2018-12-24T12:55:05.725Z,6.10
2018-12-24T12:57:34.020Z,6.12
2018-12-24T13:00:02.301Z,6.18
2018-12-24T13:02:30.686Z,6.15
2018-12-24T13:04:58.989Z,6.22
2018-12-24T13:07:27.262Z,6.22
2018-12-24T13:09:56.103Z,6.28
2018-12-24T13:12:24.349Z,6.28
2018-12-24T13:14:52.626Z,6.31
2018-12-24T13:17:21.540Z,6.24
2018-12-24T13:19:49.834Z,6.31
2018-12-24T13:22:18.131Z,6.30
2018-12-24T13:24:49.209Z,6.29
2018-12-24T13:27:17.451Z,6.27
2018-12-24T13:29:45.728Z,6.29
2018-12-24T13:32:13.993Z,6.28
2018-12-24T13:34:42.265Z,6.26
2018-12-24T13:37:10.544Z,6.26
2018-12-24T13:39:38.849Z,6.27
2018-12-24T13:42:07.452Z,6.23
2018-12-24T13:44:35.839Z,6.18
2018-12-24T13:47:04.119Z,6.20
2018-12-24T13:49:32.688Z,6.23
2018-12-24T13:52:01.022Z,6.26
2018-12-24T13:54:30.089Z,6.28
2018-12-24T13:56:58.316Z,6.30
2018-12-24T13:59:26.764Z,6.28
2018-12-24T14:01:54.998Z,6.28
2018-12-24T14:04:23.242Z,6.31
2018-12-24T14:06:51.601Z,6.32
2018-12-24T14:09:19.852Z,6.32
2018-12-24T14:11:48.135Z,6.33
2018-12-24T14:14:16.434Z,6.34
2018-12-24T14:16:44.740Z,6.33
2018-12-24T14:19:12.990Z,6.31
2018-12-24T14:21:41.301Z,6.31
2018-12-24T14:24:09.568Z,6.30
2018-12-24T14:26:37.816Z,6.29
2018-12-24T14:29:06.118Z,6.29
2018-12-24T14:31:34.368Z,6.29
2018-12-24T14:34:02.637Z,6.27
2018-12-24T14:36:30.889Z,6.25
2018-12-24T14:38:59.939Z,6.22
2018-12-24T14:41:28.306Z,6.19
2018-12-24T14:43:56.555Z,6.14
2018-12-24T14:46:25.768Z,6.03
2018-12-24T14:48:54.502Z,6.03
2018-12-24T14:51:22.744Z,6.00
2018-12-24T14:53:50.986Z,6.00
2018-12-24T14:56:19.293Z,5.93
2018-12-24T14:58:47.541Z,5.90
2018-12-24T15:01:15.824Z,5.84
2018-12-24T15:03:44.205Z,5.84
2018-12-24T15:06:12.446Z,5.80
2018-12-24T15:08:40.690Z,5.71
2018-12-24T15:11:09.046Z,5.69
2018-12-24T15:13:37.346Z,5.65
2018-12-24T15:16:05.609Z,5.62
2018-12-24T15:18:33.910Z,5.62
2018-12-24T15:21:02.203Z,5.59
2018-12-24T15:23:30.478Z,5.55
2018-12-24T15:25:58.843Z,5.55
2018-12-24T15:28:27.090Z,5.54
2018-12-24T15:30:55.367Z,5.49
2018-12-24T15:33:23.651Z,5.51
2018-12-24T15:35:51.903Z,5.51
2018-12-24T15:38:20.292Z,5.51
2018-12-24T15:40:48.578Z,5.48
2018-12-24T15:43:17.109Z,5.46
2018-12-24T15:45:45.414Z,5.51
2018-12-24T15:48:13.666Z,5.51
2018-12-24T15:50:41.916Z,5.51
2018-12-24T15:53:10.784Z,5.52
2018-12-24T15:55:39.198Z,5.52
2018-12-24T15:58:07.452Z,5.44
2018-12-24T16:00:35.827Z,5.52
2018-12-24T16:03:04.947Z,5.52
2018-12-24T16:05:33.259Z,5.49
2018-12-24T16:08:01.533Z,5.47
2018-12-24T16:10:29.865Z,5.43
2018-12-24T16:12:58.130Z,5.41
2018-12-24T16:15:26.424Z,5.41
2018-12-24T16:17:54.808Z,5.41
2018-12-24T16:20:23.067Z,5.41
2018-12-24T16:22:51.346Z,5.39
2018-12-24T16:25:19.710Z,5.41
2018-12-24T16:27:47.957Z,5.43
2018-12-24T16:30:16.273Z,5.43
2018-12-24T16:32:44.640Z,5.43
2018-12-24T16:35:12.902Z,5.43
2018-12-24T16:37:41.158Z,5.49
2018-12-24T16:40:09.533Z,5.49
2018-12-24T16:42:37.789Z,5.50
2018-12-24T16:45:06.062Z,5.50
2018-12-24T16:47:34.374Z,5.53
2018-12-24T16:50:02.681Z,5.48
2018-12-24T16:52:30.977Z,5.53
2018-12-24T16:54:59.214Z,5.55
2018-12-24T16:57:27.495Z,5.56
2018-12-24T16:59:56.672Z,5.55
2018-12-24T17:02:24.965Z,5.54
2018-12-24T17:04:53.249Z,5.54
2018-12-24T17:07:21.579Z,5.53
2018-12-24T17:09:49.843Z,5.53
2018-12-24T17:12:18.204Z,5.53
2018-12-24T17:14:46.502Z,5.53
2018-12-24T17:17:15.668Z,5.52
2018-12-24T17:19:43.926Z,5.52
2018-12-24T17:22:12.224Z,5.51
2018-12-24T17:24:40.518Z,5.51
2018-12-24T17:27:08.768Z,5.52
2018-12-24T17:29:37.203Z,5.49
2018-12-24T17:32:05.443Z,5.52
2018-12-24T17:34:33.718Z,5.50
2018-12-24T17:37:02.027Z,5.55
2018-12-24T17:39:30.260Z,5.55
2018-12-24T17:41:59.141Z,5.58
2018-12-24T17:44:27.390Z,5.56
2018-12-24T17:46:55.868Z,5.54
2018-12-24T17:49:24.233Z,5.54
2018-12-24T17:51:52.482Z,5.55
2018-12-24T17:54:20.778Z,5.52
2018-12-24T17:56:49.061Z,5.52
2018-12-24T17:59:17.366Z,5.56
2018-12-24T18:01:45.711Z,5.57
2018-12-24T18:04:13.955Z,5.51
2018-12-24T18:06:42.609Z,5.50
2018-12-24T18:09:10.904Z,5.50
2018-12-24T18:11:39.169Z,5.47
2018-12-24T18:14:07.483Z,5.47
2018-12-24T18:16:35.733Z,5.46
2018-12-24T18:19:04.035Z,5.47
2018-12-24T18:21:32.338Z,5.47
2018-12-24T18:24:00.610Z,5.41
2018-12-24T18:26:28.865Z,5.41
2018-12-24T18:28:57.265Z,5.51
2018-12-24T18:31:25.557Z,5.52
2018-12-24T18:33:53.829Z,5.52
2018-12-24T18:36:22.130Z,5.46
2018-12-24T18:38:50.390Z,5.48
2018-12-24T18:41:18.689Z,5.48
2018-12-24T18:43:47.003Z,5.41
2018-12-24T18:46:15.260Z,5.43
2018-12-24T18:48:43.526Z,5.41
2018-12-24T18:51:11.776Z,5.39
2018-12-24T18:53:40.128Z,5.38
2018-12-24T18:56:08.401Z,5.38
2018-12-24T18:58:36.657Z,5.37
2018-12-24T19:01:05.155Z,5.31
2018-12-24T19:03:33.397Z,5.31
2018-12-24T19:06:01.705Z,5.35
2018-12-24T19:08:30.081Z,5.33
2018-12-24T19:10:58.385Z,5.30
2018-12-24T19:13:26.664Z,5.30
2018-12-24T19:15:55.378Z,5.31
2018-12-24T19:18:23.626Z,5.31
2018-12-24T19:20:51.874Z,5.32
2018-12-24T19:23:20.153Z,5.30
2018-12-24T19:25:48.450Z,5.33
2018-12-24T19:28:16.830Z,5.32
2018-12-24T19:30:45.083Z,5.28
2018-12-24T19:33:13.373Z,5.31
2018-12-24T19:35:41.658Z,5.31
2018-12-24T19:38:10.100Z,5.30
2018-12-24T19:40:38.338Z,5.33
2018-12-24T19:43:06.654Z,5.33
2018-12-24T19:45:34.905Z,5.31
2018-12-24T19:48:03.173Z,5.31
2018-12-24T19:50:31.435Z,5.26
2018-12-24T19:52:59.713Z,5.32
2018-12-24T19:55:27.968Z,5.32
2018-12-24T19:57:56.401Z,5.30
2018-12-24T20:00:24.652Z,5.27
2018-12-24T20:02:52.906Z,5.22
2018-12-24T20:05:21.202Z,5.27
2018-12-24T20:07:49.455Z,5.24
2018-12-24T20:10:17.699Z,5.16
2018-12-24T20:12:46.259Z,5.16
2018-12-24T20:15:14.510Z,5.14
2018-12-24T20:17:42.757Z,5.15
2018-12-24T20:20:11.169Z,5.13
2018-12-24T20:22:39.449Z,5.10
2018-12-24T20:25:07.692Z,5.09
2018-12-24T20:27:35.964Z,5.09
2018-12-24T20:30:04.990Z,5.13
2018-12-24T20:32:33.257Z,5.13
2018-12-24T20:35:01.513Z,5.11
2018-12-24T20:37:29.829Z,5.10
2018-12-24T20:39:58.081Z,5.03
2018-12-24T20:42:26.408Z,5.03
2018-12-24T20:44:54.715Z,4.98
2018-12-24T20:47:23.033Z,4.99
2018-12-24T20:49:51.413Z,4.99
2018-12-24T20:52:20.330Z,5.00
2018-12-24T20:54:48.582Z,4.98
2018-12-24T20:57:16.959Z,4.91
2018-12-24T20:59:45.228Z,4.95
2018-12-24T21:02:13.497Z,4.94
2018-12-24T21:04:41.787Z,4.92
2018-12-24T21:07:10.937Z,4.92
2018-12-24T21:09:39.990Z,4.88
2018-12-24T21:12:08.279Z,4.93
2018-12-24T21:14:36.821Z,4.93
2018-12-24T21:17:05.225Z,4.92
2018-12-24T21:19:33.506Z,4.92
2018-12-24T21:22:01.833Z,4.93
2018-12-24T21:24:30.800Z,4.91
2018-12-24T21:26:59.061Z,4.90
2018-12-24T21:29:27.304Z,4.89
2018-12-24T21:31:55.733Z,4.88
2018-12-24T21:34:23.976Z,4.86
2018-12-24T21:36:52.251Z,4.82
2018-12-24T21:39:20.634Z,4.77
2018-12-24T21:41:49.065Z,4.81
2018-12-24T21:44:17.382Z,4.81
2018-12-24T21:46:45.658Z,4.82
2018-12-24T21:49:14.039Z,4.82
2018-12-24T21:51:42.366Z,4.80
2018-12-24T21:54:10.763Z,4.80
2018-12-24T21:56:39.055Z,4.80
2018-12-24T21:59:07.301Z,4.80
2018-12-24T22:01:35.598Z,4.81
2018-12-24T22:04:03.986Z,4.80
2018-12-24T22:06:32.337Z,4.76
2018-12-24T22:09:00.579Z,4.76
2018-12-24T22:11:29.895Z,4.74
2018-12-24T22:13:58.143Z,4.73
2018-12-24T22:16:26.676Z,4.66
2018-12-24T22:18:54.931Z,4.66
2018-12-24T22:21:23.189Z,4.60
2018-12-24T22:23:51.568Z,4.56
2018-12-24T22:26:19.818Z,4.56
2018-12-24T22:28:48.068Z,4.52
2018-12-24T22:31:16.474Z,4.44
2018-12-24T22:33:44.929Z,4.44
2018-12-24T22:36:13.745Z,4.37
2018-12-24T22:38:42.377Z,4.32
2018-12-24T22:41:10.632Z,4.30
2018-12-24T22:43:39.342Z,4.27
2018-12-24T22:46:07.610Z,4.24
2018-12-24T22:48:40.599Z,4.20
2018-12-24T22:51:05.884Z,4.17
2018-12-24T22:53:34.133Z,4.16
2018-12-24T22:56:02.442Z,4.15
2018-12-24T22:58:30.685Z,4.12
2018-12-24T23:00:59.108Z,4.12
2018-12-24T23:03:27.401Z,4.11
2018-12-24T23:05:55.665Z,4.12
2018-12-24T23:08:24.042Z,4.13
2018-12-24T23:10:52.342Z,4.15
2018-12-24T23:13:20.626Z,4.18
2018-12-24T23:15:49.693Z,4.20
2018-12-24T23:18:18.036Z,4.22
2018-12-24T23:20:46.323Z,4.24
2018-12-24T23:23:14.590Z,4.28
2018-12-24T23:25:42.885Z,4.32
2018-12-24T23:28:11.140Z,4.34
2018-12-24T23:30:39.475Z,4.36
2018-12-24T23:33:07.709Z,4.36
2018-12-24T23:35:36.030Z,4.38
2018-12-24T23:38:04.366Z,4.38
2018-12-24T23:40:32.631Z,4.40
2018-12-24T23:43:00.879Z,4.44
2018-12-24T23:45:29.268Z,4.46
2018-12-24T23:47:57.631Z,4.48
2018-12-24T23:50:25.872Z,4.46
2018-12-24T23:52:54.149Z,4.47
2018-12-24T23:55:22.451Z,4.48
2018-12-24T23:57:50.919Z,4.50
